createdAt,value
2022-11-07T00:00:43.795Z,11.69
2022-11-07T00:03:16.339Z,11.70
2022-11-07T00:05:46.468Z,11.62
2022-11-07T00:08:16.242Z,11.79
2022-11-07T00:10:48.614Z,11.66
2022-11-07T00:13:18.379Z,11.63
2022-11-07T00:15:48.094Z,11.80
2022-11-07T00:18:17.944Z,11.88
2022-11-07T00:20:47.709Z,11.83
2022-11-07T00:23:17.592Z,11.96
2022-11-07T00:25:50.013Z,11.95
2022-11-07T00:28:19.892Z,12.01
2022-11-07T00:30:49.719Z,12.00
2022-11-07T00:33:19.477Z,11.94
2022-11-07T00:35:49.493Z,11.82
2022-11-07T00:38:19.384Z,11.95
2022-11-07T00:40:59.886Z,11.89
2022-11-07T00:43:30.364Z,12.05
2022-11-07T00:46:02.655Z,12.05
2022-11-07T00:48:33.402Z,11.95
2022-11-07T00:51:08.878Z,12.05
2022-11-07T00:53:38.662Z,11.99
2022-11-07T00:56:13.597Z,12.20
2022-11-07T00:58:44.419Z,12.21
2022-11-07T01:01:17.636Z,11.80
2022-11-07T01:03:59.945Z,11.89
2022-11-07T01:06:30.704Z,11.98
2022-11-07T01:09:00.917Z,12.06
2022-11-07T01:11:33.366Z,12.07
2022-11-07T01:14:04.998Z,11.97
2022-11-07T01:16:35.875Z,12.13
2022-11-07T01:19:06.245Z,12.00
2022-11-07T01:21:36.074Z,12.11
2022-11-07T01:24:05.914Z,12.07
2022-11-07T01:26:39.178Z,12.05
2022-11-07T01:29:09.442Z,11.83
2022-11-07T01:31:39.226Z,12.10
2022-11-07T01:34:09.249Z,12.07
2022-11-07T01:36:39.022Z,12.08
2022-11-07T01:39:09.961Z,12.05
2022-11-07T01:41:43.979Z,12.20
2022-11-07T01:44:43.604Z,12.02
2022-11-07T01:47:14.286Z,12.17
2022-11-07T01:49:45.960Z,12.08
2022-11-07T01:52:19.982Z,12.26
2022-11-07T01:54:57.795Z,12.19
2022-11-07T01:57:34.198Z,12.17
2022-11-07T02:00:08.905Z,12.11
2022-11-07T02:02:40.084Z,12.22
2022-11-07T02:05:11.719Z,12.35
2022-11-07T02:07:42.626Z,12.22
2022-11-07T02:10:14.099Z,12.15
2022-11-07T02:12:46.962Z,11.93
2022-11-07T02:15:16.795Z,12.07
2022-11-07T02:17:46.569Z,12.18
2022-11-07T02:20:16.627Z,12.22
2022-11-07T02:22:52.258Z,12.22
2022-11-07T02:25:25.268Z,12.22
2022-11-07T02:27:58.319Z,12.26
2022-11-07T02:30:30.868Z,12.16
2022-11-07T02:33:00.639Z,12.15
2022-11-07T02:35:42.559Z,12.26
2022-11-07T02:38:16.802Z,12.31
2022-11-07T02:40:52.490Z,12.42
2022-11-07T02:43:25.558Z,12.31
2022-11-07T02:45:56.479Z,12.30
2022-11-07T02:48:31.472Z,12.34
2022-11-07T02:51:01.903Z,12.27
2022-11-07T02:53:31.718Z,12.28
2022-11-07T02:56:04.209Z,12.10
2022-11-07T02:58:34.158Z,12.27
2022-11-07T03:01:07.141Z,12.35
2022-11-07T03:03:39.162Z,12.21
2022-11-07T03:06:10.669Z,12.18
2022-11-07T03:08:40.572Z,12.26
2022-11-07T03:11:14.361Z,12.26
2022-11-07T03:13:44.163Z,12.31
2022-11-07T03:16:14.219Z,12.23
2022-11-07T03:18:44.011Z,12.28
2022-11-07T03:21:14.300Z,12.24
2022-11-07T03:23:44.059Z,12.29
2022-11-07T03:26:16.373Z,12.41
2022-11-07T03:28:46.178Z,12.27
2022-11-07T03:31:15.917Z,12.41
2022-11-07T03:33:45.618Z,12.26
2022-11-07T03:36:15.363Z,12.23
2022-11-07T03:38:45.102Z,12.10
2022-11-07T03:41:17.525Z,12.32
2022-11-07T03:43:48.017Z,12.28
2022-11-07T03:46:18.871Z,12.44
2022-11-07T03:48:48.840Z,12.03
2022-11-07T03:51:18.636Z,12.14
2022-11-07T03:53:48.413Z,12.17
2022-11-07T03:56:20.732Z,12.14
2022-11-07T03:58:50.591Z,11.85
2022-11-07T04:01:20.412Z,12.04
2022-11-07T04:03:53.927Z,12.07
2022-11-07T04:06:25.954Z,11.87
2022-11-07T04:08:55.712Z,12.16
2022-11-07T04:11:40.516Z,12.20
2022-11-07T04:14:23.395Z,12.14
2022-11-07T04:17:05.627Z,12.17
2022-11-07T04:19:35.533Z,12.12
2022-11-07T04:22:05.352Z,12.13
2022-11-07T04:24:35.114Z,12.22
2022-11-07T04:27:19.918Z,12.15
2022-11-07T04:29:49.656Z,12.30
2022-11-07T04:32:19.389Z,12.36
2022-11-07T04:34:49.150Z,12.20
2022-11-07T04:37:18.959Z,12.31
2022-11-07T04:39:48.950Z,12.43
2022-11-07T04:42:21.281Z,12.32
2022-11-07T04:44:51.025Z,12.22
2022-11-07T04:47:20.784Z,12.39
2022-11-07T04:49:50.534Z,12.52
2022-11-07T04:52:20.292Z,12.30
2022-11-07T04:54:50.081Z,12.45
2022-11-07T04:57:22.422Z,12.41
2022-11-07T04:59:52.155Z,12.33
2022-11-07T05:02:21.955Z,12.41
2022-11-07T05:04:51.701Z,12.64
2022-11-07T05:07:22.080Z,12.58
2022-11-07T05:09:51.869Z,12.52
2022-11-07T05:12:24.221Z,12.72
2022-11-07T05:14:54.014Z,12.69
2022-11-07T05:17:27.851Z,12.70
2022-11-07T05:19:57.909Z,12.40
2022-11-07T05:22:40.102Z,12.71
2022-11-07T05:25:11.533Z,12.71
2022-11-07T05:27:43.930Z,12.56
2022-11-07T05:30:15.249Z,12.57
2022-11-07T05:32:44.978Z,12.43
2022-11-07T05:35:14.706Z,12.47
2022-11-07T05:37:44.449Z,12.33
2022-11-07T05:40:15.089Z,12.56
2022-11-07T05:42:47.561Z,12.72
2022-11-07T05:45:17.583Z,12.51
2022-11-07T05:47:47.358Z,12.73
2022-11-07T05:50:17.313Z,12.76
2022-11-07T05:52:47.094Z,12.85
2022-11-07T05:55:17.002Z,12.80
2022-11-07T05:57:50.040Z,12.95
2022-11-07T06:00:20.914Z,12.96
2022-11-07T06:02:57.620Z,12.63
2022-11-07T06:05:27.522Z,12.89
2022-11-07T06:07:58.265Z,12.76
2022-11-07T06:10:29.295Z,12.64
2022-11-07T06:13:05.069Z,12.63
2022-11-07T06:15:37.792Z,12.73
2022-11-07T06:18:11.639Z,12.76
2022-11-07T06:20:42.666Z,12.76
2022-11-07T06:23:14.821Z,12.74
2022-11-07T06:25:45.939Z,12.85
2022-11-07T06:28:19.333Z,12.77
2022-11-07T06:30:50.159Z,12.45
2022-11-07T06:33:22.268Z,12.66
2022-11-07T06:35:53.087Z,12.54
2022-11-07T06:38:24.076Z,12.85
2022-11-07T06:40:54.840Z,12.81
2022-11-07T06:43:33.826Z,12.90
2022-11-07T06:46:07.159Z,12.77
2022-11-07T06:48:38.005Z,12.58
2022-11-07T06:51:11.386Z,12.83
2022-11-07T06:53:42.426Z,12.85
2022-11-07T06:56:17.604Z,12.76
2022-11-07T06:58:51.094Z,12.88
2022-11-07T07:01:21.103Z,12.53
2022-11-07T07:03:53.209Z,12.56
2022-11-07T07:06:24.062Z,12.98
2022-11-07T07:08:54.992Z,12.90
2022-11-07T07:11:25.887Z,12.85
2022-11-07T07:14:02.009Z,12.83
2022-11-07T07:16:33.372Z,12.70
2022-11-07T07:19:04.242Z,12.64
2022-11-07T07:21:36.482Z,12.97
2022-11-07T07:24:08.462Z,12.81
2022-11-07T07:26:39.318Z,13.00
2022-11-07T07:29:12.756Z,13.05
2022-11-07T07:31:44.550Z,13.05
2022-11-07T07:34:14.611Z,13.11
2022-11-07T07:36:44.463Z,13.22
2022-11-07T07:39:15.335Z,13.11
2022-11-07T07:41:46.928Z,12.90
2022-11-07T07:44:26.430Z,13.24
2022-11-07T07:46:57.278Z,13.14
2022-11-07T07:49:28.202Z,13.33
2022-11-07T07:51:59.104Z,13.30
2022-11-07T07:54:29.885Z,13.26
2022-11-07T07:57:01.857Z,13.37
2022-11-07T07:59:39.260Z,13.49
2022-11-07T08:02:13.098Z,13.49
2022-11-07T08:04:44.518Z,13.34
2022-11-07T08:07:15.658Z,13.42
2022-11-07T08:09:46.519Z,13.39
2022-11-07T08:12:17.276Z,13.58
2022-11-07T08:14:50.731Z,13.74
2022-11-07T08:17:21.548Z,13.68
2022-11-07T08:19:52.425Z,13.62
2022-11-07T08:22:23.279Z,13.60
2022-11-07T08:24:53.063Z,13.57
2022-11-07T08:27:22.944Z,13.41
2022-11-07T08:29:55.675Z,13.54
2022-11-07T08:32:25.565Z,13.23
2022-11-07T08:34:55.388Z,13.56
2022-11-07T08:37:25.455Z,13.30
2022-11-07T08:39:55.262Z,13.38
2022-11-07T08:42:25.029Z,13.22
2022-11-07T08:44:57.445Z,13.52
2022-11-07T08:47:28.361Z,13.57
2022-11-07T08:49:58.145Z,13.57
2022-11-07T08:52:27.934Z,13.66
2022-11-07T08:54:57.713Z,13.62
2022-11-07T08:57:27.446Z,13.58
2022-11-07T08:59:59.802Z,13.72
2022-11-07T09:05:19.578Z,13.79
2022-11-07T09:07:49.334Z,13.75
2022-11-07T09:10:19.142Z,13.61
2022-11-07T09:12:49.336Z,13.67
2022-11-07T09:15:22.569Z,13.71
2022-11-07T09:17:53.069Z,13.79
2022-11-07T09:20:22.942Z,13.62
2022-11-07T09:22:52.717Z,13.61
2022-11-07T09:25:23.399Z,13.88
2022-11-07T09:27:54.416Z,13.96
2022-11-07T09:30:26.819Z,13.90
2022-11-07T09:32:59.066Z,13.90
2022-11-07T09:35:29.060Z,13.89
2022-11-07T09:37:58.858Z,13.99
2022-11-07T09:40:41.220Z,14.16
2022-11-07T09:43:28.467Z,14.19
2022-11-07T09:46:06.777Z,14.08
2022-11-07T09:48:44.773Z,14.17
2022-11-07T09:51:21.518Z,14.25
2022-11-07T09:53:58.946Z,14.10
2022-11-07T09:56:30.683Z,14.12
2022-11-07T09:59:04.023Z,14.22
2022-11-07T10:01:36.907Z,14.11
2022-11-07T10:04:25.302Z,13.98
2022-11-07T10:07:01.222Z,14.28
2022-11-07T10:09:43.256Z,14.28
2022-11-07T10:12:26.431Z,14.35
2022-11-07T10:15:04.624Z,14.42
2022-11-07T10:17:48.035Z,14.42
2022-11-07T10:20:31.895Z,14.44
2022-11-07T10:23:20.275Z,14.40
2022-11-07T10:25:57.807Z,14.50
2022-11-07T10:28:28.257Z,14.36
2022-11-07T10:31:01.620Z,14.52
2022-11-07T10:33:42.574Z,14.59
2022-11-07T10:36:20.327Z,14.63
2022-11-07T10:38:50.097Z,14.80
2022-11-07T10:41:22.045Z,14.87
2022-11-07T10:43:55.248Z,14.83
2022-11-07T10:46:29.929Z,14.87
2022-11-07T10:49:04.349Z,14.85
2022-11-07T10:51:38.919Z,14.86
2022-11-07T10:54:09.645Z,14.95
2022-11-07T10:56:50.723Z,15.18
2022-11-07T10:59:32.917Z,15.23
2022-11-07T11:02:12.361Z,15.11
2022-11-07T11:04:51.614Z,15.35
2022-11-07T11:07:27.144Z,15.20
2022-11-07T11:09:59.989Z,15.37
2022-11-07T11:12:34.307Z,15.41
2022-11-07T11:15:09.656Z,15.46
2022-11-07T11:17:39.707Z,15.48
2022-11-07T11:20:31.105Z,15.51
2022-11-07T11:23:02.464Z,15.40
2022-11-07T11:25:32.306Z,15.65
2022-11-07T11:28:08.813Z,15.71
2022-11-07T11:30:39.732Z,15.83
2022-11-07T11:33:15.194Z,15.33
2022-11-07T11:35:51.997Z,15.88
2022-11-07T11:38:26.907Z,15.82
2022-11-07T11:41:07.665Z,15.77
2022-11-07T11:43:48.106Z,15.64
2022-11-07T11:46:26.766Z,15.87
2022-11-07T11:49:00.889Z,16.04
2022-11-07T11:51:41.539Z,16.05
2022-11-07T11:54:13.008Z,16.11
2022-11-07T11:56:55.122Z,15.92
2022-11-07T11:59:49.890Z,15.85
2022-11-07T12:02:50.181Z,15.93
2022-11-07T12:05:48.765Z,16.10
2022-11-07T12:08:38.272Z,15.85
2022-11-07T12:11:15.473Z,16.25
2022-11-07T12:13:52.268Z,16.14
2022-11-07T12:16:29.410Z,16.35
2022-11-07T12:19:08.455Z,16.25
2022-11-07T12:21:48.611Z,16.30
2022-11-07T12:24:35.912Z,16.09
2022-11-07T12:27:19.372Z,16.10
2022-11-07T12:30:07.599Z,16.09
2022-11-07T12:32:50.868Z,16.39
2022-11-07T12:35:43.031Z,16.23
2022-11-07T12:38:45.491Z,16.00
2022-11-07T12:41:29.070Z,15.67
2022-11-07T12:44:09.174Z,15.85
2022-11-07T12:46:48.736Z,15.90
2022-11-07T12:49:43.692Z,16.00
2022-11-07T12:52:36.580Z,15.55
2022-11-07T12:55:18.775Z,15.78
2022-11-07T12:57:52.903Z,15.84
2022-11-07T13:00:29.650Z,15.66
2022-11-07T13:03:30.526Z,15.35
2022-11-07T13:06:13.730Z,15.67
2022-11-07T13:08:50.160Z,15.78
2022-11-07T13:11:26.294Z,15.64
2022-11-07T13:14:22.708Z,15.31
2022-11-07T13:17:05.700Z,15.33
2022-11-07T13:19:37.744Z,15.16
2022-11-07T13:22:09.844Z,15.05
2022-11-07T13:24:41.775Z,15.13
2022-11-07T13:27:23.366Z,15.17
2022-11-07T13:29:55.751Z,15.18
2022-11-07T13:32:26.738Z,15.06
2022-11-07T13:35:02.943Z,15.04
2022-11-07T13:37:35.202Z,15.06
2022-11-07T13:40:09.976Z,15.01
2022-11-07T13:42:43.046Z,15.05
2022-11-07T13:45:29.304Z,15.08
2022-11-07T13:48:03.690Z,14.97
2022-11-07T13:50:42.462Z,15.10
2022-11-07T13:53:20.123Z,15.08
2022-11-07T13:55:58.771Z,15.09
2022-11-07T13:58:31.496Z,15.05
2022-11-07T14:01:12.717Z,14.96
2022-11-07T14:03:43.588Z,14.76
2022-11-07T14:06:16.149Z,14.92
2022-11-07T14:08:48.806Z,14.91
2022-11-07T14:11:21.889Z,15.05
2022-11-07T14:13:56.890Z,15.06
2022-11-07T14:16:32.321Z,15.02
2022-11-07T14:19:06.650Z,15.00
2022-11-07T14:21:38.892Z,15.12
2022-11-07T14:24:24.431Z,15.11
2022-11-07T14:27:01.488Z,15.04
2022-11-07T14:29:32.690Z,15.23
2022-11-07T14:32:07.663Z,15.29
2022-11-07T14:34:38.265Z,15.11
2022-11-07T14:37:09.670Z,14.91
2022-11-07T14:39:40.715Z,15.16
2022-11-07T14:42:11.327Z,15.14
2022-11-07T14:44:54.568Z,15.14
2022-11-07T14:47:31.946Z,15.13
2022-11-07T14:50:04.559Z,15.26
2022-11-07T14:52:39.156Z,15.26
2022-11-07T14:55:18.931Z,15.11
2022-11-07T14:57:49.606Z,15.09
2022-11-07T15:00:22.551Z,15.17
2022-11-07T15:02:57.629Z,15.22
2022-11-07T15:05:30.278Z,15.25
2022-11-07T15:08:02.777Z,15.08
2022-11-07T15:10:36.719Z,15.08
2022-11-07T15:13:08.785Z,15.19
2022-11-07T15:15:40.320Z,15.23
2022-11-07T15:18:28.537Z,15.18
2022-11-07T15:21:01.076Z,15.28
2022-11-07T15:23:34.304Z,15.29
2022-11-07T15:26:15.049Z,15.13
2022-11-07T15:28:50.378Z,15.29
2022-11-07T15:31:37.435Z,15.12
2022-11-07T15:34:17.921Z,15.07
2022-11-07T15:36:51.947Z,15.01
2022-11-07T15:39:22.887Z,15.21
2022-11-07T15:41:53.711Z,15.19
2022-11-07T15:44:24.678Z,15.11
2022-11-07T15:46:55.655Z,15.15
2022-11-07T15:49:30.942Z,15.09
2022-11-07T15:52:01.762Z,15.05
2022-11-07T15:54:31.584Z,15.06
2022-11-07T15:57:06.461Z,15.12
2022-11-07T15:59:39.874Z,15.17
2022-11-07T16:02:17.830Z,15.16
2022-11-07T16:04:51.444Z,15.15
2022-11-07T16:07:23.126Z,15.15
2022-11-07T16:09:53.038Z,15.09
2022-11-07T16:12:23.897Z,15.13
2022-11-07T16:14:55.774Z,15.05
2022-11-07T16:17:25.629Z,15.10
2022-11-07T16:20:01.567Z,15.04
2022-11-07T16:22:32.686Z,15.07
2022-11-07T16:25:05.917Z,14.79
2022-11-07T16:27:40.345Z,14.79
2022-11-07T16:30:16.847Z,14.82
2022-11-07T16:32:47.057Z,14.96
2022-11-07T16:35:19.598Z,15.01
2022-11-07T16:37:49.670Z,15.00
2022-11-07T16:40:22.339Z,15.05
2022-11-07T16:42:52.181Z,15.03
2022-11-07T16:45:22.480Z,15.04
2022-11-07T16:47:52.344Z,15.06
2022-11-07T16:50:25.720Z,15.10
2022-11-07T16:52:55.707Z,15.13
2022-11-07T16:55:25.509Z,15.18
2022-11-07T16:57:56.883Z,15.18
2022-11-07T17:00:27.745Z,14.99
2022-11-07T17:02:58.628Z,15.06
2022-11-07T17:05:32.154Z,14.98
2022-11-07T17:08:05.360Z,14.97
2022-11-07T17:10:36.181Z,15.15
2022-11-07T17:13:06.096Z,15.13
2022-11-07T17:15:35.914Z,15.19
2022-11-07T17:18:08.431Z,15.13
2022-11-07T17:20:50.941Z,15.03
2022-11-07T17:23:28.533Z,14.96
2022-11-07T17:26:02.445Z,15.05
2022-11-07T17:28:33.619Z,15.07
2022-11-07T17:31:03.572Z,15.03
2022-11-07T17:33:33.525Z,14.93
2022-11-07T17:36:08.380Z,15.03
2022-11-07T17:38:39.346Z,15.02
2022-11-07T17:41:19.755Z,14.91
2022-11-07T17:43:51.921Z,15.01
2022-11-07T17:46:26.146Z,14.84
2022-11-07T17:48:58.382Z,14.89
2022-11-07T17:51:31.270Z,14.88
2022-11-07T17:54:02.219Z,14.98
2022-11-07T17:56:34.865Z,15.05
2022-11-07T17:59:06.783Z,14.80
2022-11-07T18:01:41.352Z,14.94
2022-11-07T18:04:13.641Z,14.95
2022-11-07T18:06:46.377Z,15.01
2022-11-07T18:09:18.048Z,15.06
2022-11-07T18:11:49.099Z,15.06
2022-11-07T18:14:18.899Z,15.01
2022-11-07T18:16:48.826Z,15.13
2022-11-07T18:19:19.048Z,15.12
2022-11-07T18:21:51.510Z,15.17
2022-11-07T18:24:21.449Z,15.11
2022-11-07T18:26:53.514Z,15.07
2022-11-07T18:29:23.604Z,14.95
2022-11-07T18:31:53.533Z,15.01
2022-11-07T18:34:23.547Z,15.06
2022-11-07T18:36:56.138Z,14.95
2022-11-07T18:39:26.258Z,15.16
2022-11-07T18:41:56.693Z,15.10
2022-11-07T18:44:26.704Z,15.04
2022-11-07T18:46:56.708Z,15.08
2022-11-07T18:49:26.754Z,15.05
2022-11-07T18:51:59.410Z,14.98
2022-11-07T18:54:29.937Z,15.01
2022-11-07T18:57:00.005Z,15.03
2022-11-07T18:59:32.931Z,15.06
2022-11-07T19:02:02.926Z,15.21
2022-11-07T19:04:34.002Z,15.08
2022-11-07T19:07:06.596Z,14.91
2022-11-07T19:09:37.042Z,14.95
2022-11-07T19:12:08.310Z,14.92
2022-11-07T19:14:38.370Z,15.16
2022-11-07T19:17:08.339Z,15.12
2022-11-07T19:19:38.457Z,15.09
2022-11-07T19:22:12.635Z,15.04
2022-11-07T19:24:42.611Z,15.13
2022-11-07T19:27:12.581Z,15.07
2022-11-07T19:29:42.659Z,15.02
2022-11-07T19:32:12.808Z,15.09
2022-11-07T19:34:42.708Z,14.96
2022-11-07T19:37:15.257Z,14.95
2022-11-07T19:39:45.107Z,14.92
2022-11-07T19:42:15.151Z,14.86
2022-11-07T19:44:50.464Z,14.88
2022-11-07T19:47:23.923Z,14.80
2022-11-07T19:49:53.998Z,14.87
2022-11-07T19:52:26.622Z,14.92
2022-11-07T19:54:56.513Z,14.94
2022-11-07T19:57:26.557Z,14.92
2022-11-07T19:59:57.545Z,15.02
2022-11-07T20:02:34.613Z,14.98
2022-11-07T20:05:07.118Z,14.82
2022-11-07T20:07:39.637Z,14.98
2022-11-07T20:10:10.935Z,14.95
2022-11-07T20:12:40.925Z,15.03
2022-11-07T20:15:12.487Z,15.05
2022-11-07T20:17:43.361Z,15.09
2022-11-07T20:20:14.675Z,15.07
2022-11-07T20:22:50.402Z,14.90
2022-11-07T20:25:20.682Z,15.00
2022-11-07T20:27:50.605Z,14.91
2022-11-07T20:30:20.395Z,14.97
2022-11-07T20:32:51.356Z,14.92
2022-11-07T20:35:21.154Z,15.04
2022-11-07T20:37:53.718Z,15.20
2022-11-07T20:40:29.088Z,15.23
2022-11-07T20:43:02.879Z,15.18
2022-11-07T20:45:33.736Z,15.11
2022-11-07T20:48:04.792Z,15.13
2022-11-07T20:50:37.569Z,15.35
2022-11-07T20:53:10.170Z,15.29
2022-11-07T20:55:44.576Z,15.18
2022-11-07T20:58:16.553Z,15.33
2022-11-07T21:00:47.646Z,15.31
2022-11-07T21:03:19.144Z,15.23
2022-11-07T21:05:54.044Z,15.28
2022-11-07T21:08:26.715Z,14.84
2022-11-07T21:10:56.795Z,15.11
2022-11-07T21:13:26.844Z,14.86
2022-11-07T21:15:56.713Z,15.09
2022-11-07T21:18:27.194Z,15.16
2022-11-07T21:21:06.864Z,15.27
2022-11-07T21:23:41.522Z,15.26
2022-11-07T21:26:13.283Z,15.08
2022-11-07T21:28:43.608Z,15.23
2022-11-07T21:31:18.166Z,15.25
2022-11-07T21:33:49.033Z,15.24
2022-11-07T21:36:20.741Z,15.23
2022-11-07T21:38:53.457Z,15.11
2022-11-07T21:41:25.052Z,15.36
2022-11-07T21:43:55.047Z,15.38
2022-11-07T21:46:27.182Z,15.30
2022-11-07T21:48:58.833Z,15.40
2022-11-07T21:51:31.565Z,15.33
2022-11-07T21:54:05.618Z,15.47
2022-11-07T21:56:39.340Z,15.31
2022-11-07T21:59:13.324Z,15.56
2022-11-07T22:01:44.904Z,15.47
2022-11-07T22:04:15.926Z,15.53
2022-11-07T22:06:47.617Z,15.60
2022-11-07T22:09:23.015Z,15.53
2022-11-07T22:11:53.053Z,15.51
2022-11-07T22:14:25.771Z,15.46
2022-11-07T22:16:57.925Z,15.58
2022-11-07T22:19:28.835Z,15.49
2022-11-07T22:21:59.702Z,15.47
2022-11-07T22:24:32.146Z,15.49
2022-11-07T22:27:02.990Z,15.51
2022-11-07T22:29:33.859Z,15.45
2022-11-07T22:32:04.042Z,15.20
2022-11-07T22:34:34.042Z,15.49
2022-11-07T22:37:04.900Z,15.53
2022-11-07T22:39:38.342Z,15.52
2022-11-07T22:42:08.654Z,15.42
2022-11-07T22:44:38.503Z,15.35
2022-11-07T22:47:08.441Z,15.41
2022-11-07T22:49:38.381Z,15.47
2022-11-07T22:52:08.304Z,15.46
2022-11-07T22:54:41.054Z,15.43
2022-11-07T22:57:15.296Z,15.48
2022-11-07T22:59:47.516Z,15.46
2022-11-07T23:02:17.432Z,15.52
2022-11-07T23:04:47.280Z,15.40
2022-11-07T23:07:17.033Z,15.48
2022-11-07T23:09:49.434Z,15.43
2022-11-07T23:12:19.185Z,15.40
2022-11-07T23:14:49.262Z,15.50
2022-11-07T23:17:19.153Z,15.41
2022-11-07T23:19:48.894Z,15.35
2022-11-07T23:22:18.629Z,15.50
2022-11-07T23:24:52.873Z,15.55
2022-11-07T23:27:23.304Z,15.64
2022-11-07T23:29:53.189Z,15.60
2022-11-07T23:32:22.961Z,15.60
2022-11-07T23:34:55.407Z,15.56
2022-11-07T23:37:25.143Z,15.40
2022-11-07T23:39:57.554Z,15.20
2022-11-07T23:42:27.293Z,15.19
2022-11-07T23:45:09.507Z,15.18
2022-11-07T23:47:51.714Z,15.16
2022-11-07T23:50:34.068Z,14.89
2022-11-07T23:53:24.475Z,14.83
2022-11-07T23:55:54.219Z,15.12
2022-11-07T23:58:36.469Z,14.99
